Time;durP1;ratioP1;P1;durP2;ratioP2;P2;SDS_P1;SDS_P2;PMS_P1;PMS_P2;Temp;Humidity;BMP_temperature;BMP_pressure;BME280_temperature;BME280_humidity;BME280_pressure;Samples;Min_cycle;Max_cycle;Signal;HPM_P1;HPM_P2
2023/02/20 00:02:02;;;;;;;1999.90;999.90;;;9.40;99.90;;;;;;5028432;28;20472;-69
2023/02/20 00:04:31;;;;;;;1999.90;999.90;;;9.40;99.90;;;;;;5027808;28;20453;-70
2023/02/20 00:06:57;;;;;;;1999.90;999.90;;;9.40;99.90;;;;;;5029052;28;20458;-68
2023/02/20 00:09:24;;;;;;;1999.90;999.90;;;9.40;99.90;;;;;;5028607;28;20452;-68
2023/02/20 00:11:51;;;;;;;1999.90;999.90;;;9.30;99.90;;;;;;5046964;28;20468;-69
2023/02/20 00:14:18;;;;;;;1999.90;999.90;;;9.20;99.90;;;;;;5046973;28;20471;-68
2023/02/20 00:16:46;;;;;;;1999.90;999.90;;;9.20;99.90;;;;;;5048884;28;20456;-67
2023/02/20 00:19:13;;;;;;;1999.90;999.90;;;9.20;99.90;;;;;;5047983;28;20459;-67
2023/02/20 00:21:46;;;;;;;1999.90;999.90;;;9.20;99.90;;;;;;5048514;28;20499;-68
2023/02/20 00:24:13;;;;;;;1999.90;999.90;;;9.10;99.90;;;;;;5032252;28;20464;-67
2023/02/20 00:26:46;;;;;;;1999.90;999.90;;;9.10;99.90;;;;;;5028867;28;20817;-68
2023/02/20 00:29:15;;;;;;;1999.90;999.90;;;9.00;99.90;;;;;;5028816;28;20449;-68
2023/02/20 00:31:42;;;;;;;1999.90;999.90;;;9.00;99.90;;;;;;5028209;28;20461;-71
2023/02/20 00:34:09;;;;;;;1999.90;999.90;;;9.00;99.90;;;;;;5027073;28;20464;-68
2023/02/20 00:36:35;;;;;;;1999.90;999.90;;;9.00;99.90;;;;;;5029020;28;20445;-67
2023/02/20 00:39:03;;;;;;;1999.90;999.90;;;9.00;99.90;;;;;;5027490;28;20480;-70
2023/02/20 00:41:30;;;;;;;1999.90;999.90;;;9.00;99.90;;;;;;5028943;28;20476;-71
2023/02/20 00:43:57;;;;;;;1999.90;999.90;;;9.10;99.90;;;;;;5027327;28;20452;-67
2023/02/20 00:46:24;;;;;;;1999.90;999.90;;;9.10;99.90;;;;;;5028424;28;20449;-67
2023/02/20 00:48:50;;;;;;;1999.90;999.90;;;9.00;99.90;;;;;;5028135;28;20445;-69
2023/02/20 00:51:17;;;;;;;1999.90;999.90;;;9.10;99.90;;;;;;5027761;28;20828;-67
2023/02/20 00:53:44;;;;;;;1999.90;999.90;;;9.10;99.90;;;;;;5026969;28;20491;-68
2023/02/20 00:56:12;;;;;;;1999.90;999.90;;;9.10;99.90;;;;;;5027585;28;20970;-70
2023/02/20 00:58:39;;;;;;;1999.90;999.90;;;9.00;99.90;;;;;;5042463;28;20448;-70
2023/02/20 01:01:06;;;;;;;1999.90;999.90;;;9.00;99.90;;;;;;5047424;28;20479;-67
2023/02/20 01:03:33;;;;;;;1999.90;999.90;;;8.90;99.90;;;;;;5046343;28;20831;-68
2023/02/20 01:06:00;;;;;;;1999.90;999.90;;;8.90;99.90;;;;;;5047815;28;20451;-70
2023/02/20 01:08:27;;;;;;;1999.90;999.90;;;8.80;99.90;;;;;;5038030;28;20460;-69
2023/02/20 01:10:53;;;;;;;1999.90;999.90;;;8.90;99.90;;;;;;5023568;28;20458;-68
2023/02/20 01:13:21;;;;;;;1999.90;999.90;;;8.90;99.90;;;;;;5021591;28;20526;-68
2023/02/20 01:15:48;;;;;;;1999.90;999.90;;;8.80;99.90;;;;;;5026534;28;20810;-68
2023/02/20 01:18:15;;;;;;;1999.90;999.90;;;8.80;99.90;;;;;;5026769;28;20456;-70
2023/02/20 01:20:42;;;;;;;1999.90;999.90;;;8.80;99.90;;;;;;5026432;28;21060;-70
2023/02/20 01:23:09;;;;;;;1999.90;999.90;;;8.80;99.90;;;;;;5034193;28;20475;-69
2023/02/20 01:25:36;;;;;;;1999.90;999.90;;;8.70;99.90;;;;;;5027277;28;20459;-67
2023/02/20 01:28:03;;;;;;;1999.90;999.90;;;8.60;99.90;;;;;;5026315;28;20437;-68
2023/02/20 01:30:31;;;;;;;1999.90;999.90;;;8.50;99.90;;;;;;5027020;28;20452;-68
2023/02/20 01:32:58;;;;;;;1999.90;999.90;;;8.50;99.90;;;;;;5025565;28;20464;-69
2023/02/20 01:35:29;;;;;;;1999.90;999.90;;;8.40;99.90;;;;;;5026705;28;20471;-70
2023/02/20 01:37:56;;;;;;;1999.90;999.90;;;8.40;99.90;;;;;;5028453;28;20520;-69
2023/02/20 01:40:23;;;;;;;1999.90;999.90;;;8.40;99.90;;;;;;5026198;28;20465;-69
2023/02/20 01:42:50;;;;;;;1999.90;999.90;;;8.30;99.90;;;;;;5025674;28;20465;-70
2023/02/20 01:45:34;;;;;;;1999.90;999.90;;;8.30;99.90;;;;;;5026742;28;20452;-71
2023/02/20 01:48:02;;;;;;;1999.90;999.90;;;8.20;99.90;;;;;;5026602;28;20451;-69
2023/02/20 01:50:32;;;;;;;1999.90;999.90;;;8.10;99.90;;;;;;5028092;28;20447;-68
2023/02/20 01:53:02;;;;;;;1999.90;999.90;;;8.00;99.90;;;;;;5029360;28;20814;-68
2023/02/20 01:55:32;;;;;;;1999.90;999.90;;;8.00;99.90;;;;;;5036591;28;20455;-68
2023/02/20 01:58:02;;;;;;;1999.90;999.90;;;8.00;99.90;;;;;;5048952;28;20451;-69
2023/02/20 02:00:30;;;;;;;1999.90;999.90;;;7.90;99.90;;;;;;5050646;28;20491;-69
2023/02/20 02:03:04;;;;;;;1999.90;999.90;;;7.90;99.90;;;;;;5049621;28;20464;-67
2023/02/20 02:05:32;;;;;;;1999.90;999.90;;;7.80;99.90;;;;;;5050299;28;20440;-67
2023/02/20 02:08:01;;;;;;;1999.90;999.90;;;7.80;99.90;;;;;;5037998;28;20448;-68
2023/02/20 02:10:31;;;;;;;1999.90;999.90;;;7.70;99.90;;;;;;5030359;28;20440;-69
2023/02/20 02:12:58;;;;;;;1999.90;999.90;;;7.70;99.90;;;;;;5037501;28;20472;-70
2023/02/20 02:15:25;;;;;;;1999.90;999.90;;;7.70;99.90;;;;;;5050357;28;20448;-68
2023/02/20 02:18:10;;;;;;;1999.90;999.90;;;7.70;99.90;;;;;;5050138;28;20443;-67
2023/02/20 02:21:14;;;;;;;1999.90;999.90;;;7.70;99.90;;;;;;5050226;28;20480;-67
2023/02/20 02:24:15;;;;;;;1999.90;999.90;;;7.60;99.90;;;;;;5038807;28;20455;-71
2023/02/20 02:27:30;;;;;;;1999.90;999.90;;;7.60;99.90;;;;;;5026991;28;20449;-68
2023/02/20 02:30:35;;;;;;;1999.90;999.90;;;7.60;99.90;;;;;;4969948;28;20444;-67
2023/02/20 02:33:48;;;;;;;1999.90;999.90;;;7.50;99.90;;;;;;4967585;28;20491;-69
2023/02/20 02:36:36;;;;;;;1999.90;999.90;;;7.60;99.90;;;;;;4969596;28;20448;-68
2023/02/20 02:39:11;;;;;;;1999.90;999.90;;;7.50;99.90;;;;;;5030775;28;20460;-68
2023/02/20 02:41:45;;;;;;;1999.90;999.90;;;7.50;99.90;;;;;;5031569;28;20495;-67
2023/02/20 02:44:17;;;;;;;1999.90;999.90;;;7.50;99.90;;;;;;5009314;28;20449;-68
2023/02/20 02:46:54;;;;;;;1999.90;999.90;;;7.50;99.90;;;;;;5035370;28;20989;-68
2023/02/20 02:49:26;;;;;;;1999.90;999.90;;;7.50;99.90;;;;;;5038761;28;20444;-66
2023/02/20 02:51:56;;;;;;;1999.90;999.90;;;7.50;99.90;;;;;;5037226;28;20473;-67
2023/02/20 02:54:26;;;;;;;1999.90;999.90;;;7.50;99.90;;;;;;5047229;28;20942;-67
2023/02/20 02:57:14;;;;;;;1999.90;999.90;;;7.50;99.90;;;;;;5047749;28;20440;-66
2023/02/20 02:59:43;;;;;;;1999.90;999.90;;;7.60;99.90;;;;;;5018649;28;20449;-68
2023/02/20 03:02:14;;;;;;;1999.90;999.90;;;7.70;99.90;;;;;;5046114;28;21168;-66
2023/02/20 03:04:44;;;;;;;1999.90;999.90;;;7.70;99.90;;;;;;5039440;28;20453;-67
2023/02/20 03:07:15;;;;;;;1999.90;999.90;;;7.70;99.90;;;;;;5037868;28;20978;-68
2023/02/20 03:09:47;;;;;;;1999.90;999.90;;;7.60;99.90;;;;;;5047157;28;20448;-68
2023/02/20 03:12:15;;;;;;;1999.90;999.90;;;7.50;99.90;;;;;;5037168;28;20471;-68
2023/02/20 03:17:33;;;;;;;1999.90;999.90;;;7.50;99.90;;;;;;5030984;28;20433;-67
2023/02/20 03:20:02;;;;;;;1999.90;999.90;;;7.30;99.90;;;;;;5031281;28;20465;-68
2023/02/20 03:22:34;;;;;;;1999.90;999.90;;;7.30;99.90;;;;;;5029572;28;20481;-67
2023/02/20 03:25:08;;;;;;;1999.90;999.90;;;7.30;99.90;;;;;;5030470;28;20449;-66
2023/02/20 03:27:38;;;;;;;1999.90;999.90;;;7.40;99.90;;;;;;5030559;28;20453;-68
2023/02/20 03:30:10;;;;;;;1999.90;999.90;;;7.30;99.90;;;;;;5030380;28;20457;-68
2023/02/20 03:43:45;;;;;;;1999.90;999.90;;;7.50;99.90;;;;;;5033330;28;20493;-68
2023/02/20 03:46:17;;;;;;;1999.90;999.90;;;7.50;99.90;;;;;;5037965;28;20814;-68
2023/02/20 03:48:47;;;;;;;1999.90;999.90;;;7.60;99.90;;;;;;5038240;28;20523;-67
2023/02/20 03:51:14;;;;;;;1999.90;999.90;;;7.70;99.90;;;;;;5043884;28;20441;-67
2023/02/20 03:53:44;;;;;;;1999.90;999.90;;;7.70;99.90;;;;;;5037839;28;20837;-67
2023/02/20 03:56:16;;;;;;;1999.90;999.90;;;7.70;99.90;;;;;;5049965;28;20475;-69
2023/02/20 03:58:47;;;;;;;1999.90;999.90;;;7.70;99.90;;;;;;5046676;28;20962;-67
2023/02/20 04:01:16;;;;;;;1999.90;999.90;;;7.60;99.90;;;;;;5034468;28;20480;-68
2023/02/20 04:03:47;;;;;;;1999.90;999.90;;;7.60;99.90;;;;;;5041686;28;20675;-68
2023/02/20 04:06:17;;;;;;;1999.90;999.90;;;7.50;99.90;;;;;;5038651;28;20453;-67
2023/02/20 04:08:52;;;;;;;1999.90;999.90;;;7.50;99.90;;;;;;5036813;28;20460;-68
2023/02/20 04:11:23;;;;;;;1999.90;999.90;;;7.40;99.90;;;;;;5029213;28;20441;-67
2023/02/20 04:13:53;;;;;;;1999.90;999.90;;;7.30;99.90;;;;;;5028624;28;20456;-67
2023/02/20 04:16:21;;;;;;;1999.90;999.90;;;7.20;99.90;;;;;;5030277;28;22203;-67
2023/02/20 04:18:49;;;;;;;1999.90;999.90;;;7.20;99.90;;;;;;5030289;28;20515;-69
2023/02/20 04:21:27;;;;;;;1999.90;999.90;;;7.00;99.90;;;;;;5029876;28;20517;-67
2023/02/20 04:24:03;;;;;;;1999.90;999.90;;;7.00;99.90;;;;;;5029673;28;20847;-66
2023/02/20 04:26:30;;;;;;;1999.90;999.90;;;6.80;99.90;;;;;;5035991;28;20476;-68
2023/02/20 04:28:57;;;;;;;1999.90;999.90;;;6.80;99.90;;;;;;5033221;28;20528;-68
2023/02/20 04:31:24;;;;;;;1999.90;999.90;;;6.70;99.90;;;;;;5035803;28;20450;-67
2023/02/20 04:33:51;;;;;;;1999.90;999.90;;;6.60;99.90;;;;;;5034290;28;20978;-67
2023/02/20 04:36:18;;;;;;;1999.90;999.90;;;6.50;99.90;;;;;;5043344;28;20491;-68
2023/02/20 04:38:45;;;;;;;1999.90;999.90;;;6.50;99.90;;;;;;5034719;28;20453;-70
2023/02/20 04:41:13;;;;;;;1999.90;999.90;;;6.40;99.90;;;;;;5025877;28;20484;-67
2023/02/20 04:43:39;;;;;;;1999.90;999.90;;;6.40;99.90;;;;;;5043535;28;20447;-68
2023/02/20 04:46:07;;;;;;;1999.90;999.90;;;6.40;99.90;;;;;;5035266;28;20643;-68
2023/02/20 04:48:34;;;;;;;1999.90;999.90;;;6.40;99.90;;;;;;5040285;28;20798;-67
2023/02/20 04:51:01;;;;;;;1999.90;999.90;;;6.40;99.90;;;;;;5021515;28;20452;-69
2023/02/20 04:53:28;;;;;;;1999.90;999.90;;;6.50;99.90;;;;;;5034036;28;20473;-67
2023/02/20 04:55:54;;;;;;;1999.90;999.90;;;6.50;99.90;;;;;;5038450;28;20456;-67
2023/02/20 04:58:22;;;;;;;1999.90;999.90;;;6.60;99.90;;;;;;5040407;28;20446;-68
2023/02/20 05:00:49;;;;;;;1999.90;999.90;;;6.50;99.90;;;;;;5036076;28;20479;-68
2023/02/20 05:03:16;;;;;;;1999.90;999.90;;;6.50;99.90;;;;;;5035218;28;20492;-66
2023/02/20 05:05:43;;;;;;;1999.90;999.90;;;6.40;99.90;;;;;;5045589;28;20452;-67
2023/02/20 05:08:10;;;;;;;1999.90;999.90;;;6.30;99.90;;;;;;5029481;28;20460;-67
2023/02/20 05:10:37;;;;;;;1999.90;999.90;;;6.20;99.90;;;;;;5029860;28;20444;-67
2023/02/20 05:13:04;;;;;;;1999.90;999.90;;;6.10;99.90;;;;;;5027714;28;20472;-68
2023/02/20 05:15:32;;;;;;;1999.90;999.90;;;5.90;99.90;;;;;;5029274;28;20451;-67
2023/02/20 05:17:59;;;;;;;1999.90;999.90;;;5.90;99.90;;;;;;5029559;28;20451;-67
2023/02/20 05:23:07;;;;;;;1999.90;999.90;;;5.80;99.90;;;;;;5035425;28;20500;-67
2023/02/20 05:25:33;;;;;;;1999.90;999.90;;;5.80;99.90;;;;;;5037934;28;20452;-66
2023/02/20 05:28:00;;;;;;;1999.90;999.90;;;5.80;99.90;;;;;;5038204;28;20456;-67
2023/02/20 05:30:27;;;;;;;1999.90;999.90;;;5.70;99.90;;;;;;5042999;28;20471;-67
2023/02/20 05:32:55;;;;;;;1999.90;999.90;;;5.80;99.90;;;;;;5045590;28;20482;-69
2023/02/20 05:35:22;;;;;;;1999.90;999.90;;;5.80;99.90;;;;;;5042161;28;20907;-68
2023/02/20 05:37:49;;;;;;;1999.90;999.90;;;5.80;99.90;;;;;;5037993;28;20968;-67
2023/02/20 05:40:15;;;;;;;1999.90;999.90;;;5.90;99.90;;;;;;5055853;28;20448;-68
2023/02/20 05:42:42;;;;;;;1999.90;999.90;;;5.90;99.90;;;;;;5035324;28;20642;-68
2023/02/20 05:45:09;;;;;;;1999.90;999.90;;;5.90;99.90;;;;;;5036533;28;20471;-67
2023/02/20 05:47:37;;;;;;;1999.90;999.90;;;5.90;99.90;;;;;;5036117;28;20444;-69
2023/02/20 05:50:06;;;;;;;1999.90;999.90;;;6.00;99.90;;;;;;5034935;28;20449;-69
2023/02/20 05:52:33;;;;;;;1999.90;999.90;;;6.00;99.90;;;;;;5033156;28;20483;-66
2023/02/20 05:54:59;;;;;;;1999.90;999.90;;;6.10;99.90;;;;;;5035411;28;20466;-68
2023/02/20 05:57:27;;;;;;;1999.90;999.90;;;6.10;99.90;;;;;;5035283;28;21054;-68
2023/02/20 05:59:54;;;;;;;1999.90;999.90;;;6.10;99.90;;;;;;5035904;28;20455;-67
2023/02/20 06:02:21;;;;;;;1999.90;999.90;;;6.10;99.90;;;;;;5053654;28;20493;-69
2023/02/20 06:04:47;;;;;;;1999.90;999.90;;;6.10;99.90;;;;;;5035049;28;20995;-67
2023/02/20 06:07:15;;;;;;;1999.90;999.90;;;6.10;99.90;;;;;;5035254;28;20989;-67
2023/02/20 06:09:43;;;;;;;1999.90;999.90;;;6.10;99.90;;;;;;5035262;28;20532;-68
2023/02/20 06:12:10;;;;;;;1999.90;999.90;;;6.10;99.90;;;;;;5042003;28;20475;-67
2023/02/20 06:14:37;;;;;;;1999.90;999.90;;;6.10;99.90;;;;;;5034378;28;20457;-67
2023/02/20 06:17:04;;;;;;;1999.90;999.90;;;6.10;99.90;;;;;;5035940;28;20445;-67
2023/02/20 06:19:30;;;;;;;1999.90;999.90;;;6.10;99.90;;;;;;5035607;28;20448;-68
2023/02/20 06:21:58;;;;;;;1999.90;999.90;;;6.10;99.90;;;;;;5034769;28;20494;-69
2023/02/20 06:24:28;;;;;;;1999.90;999.90;;;6.00;99.90;;;;;;5033822;28;20475;-66
2023/02/20 06:26:54;;;;;;;1999.90;999.90;;;6.00;99.90;;;;;;5043189;28;20444;-68
2023/02/20 06:29:21;;;;;;;1999.90;999.90;;;5.90;99.90;;;;;;5043525;28;20851;-69
2023/02/20 06:31:48;;;;;;;1999.90;999.90;;;5.90;99.90;;;;;;5049777;28;20464;-68
2023/02/20 06:34:16;;;;;;;1999.90;999.90;;;5.90;99.90;;;;;;5043683;28;20460;-67
2023/02/20 06:36:43;;;;;;;1999.90;999.90;;;5.90;99.90;;;;;;5044568;28;20454;-67
2023/02/20 06:39:12;;;;;;;1999.90;999.90;;;5.90;99.90;;;;;;5051868;28;20871;-68
2023/02/20 06:41:41;;;;;;;1999.90;999.90;;;5.90;99.90;;;;;;5044136;28;21016;-67
2023/02/20 06:44:08;;;;;;;1999.90;999.90;;;5.90;99.90;;;;;;5037366;28;20448;-66
2023/02/20 06:46:35;;;;;;;1999.90;999.90;;;6.00;99.90;;;;;;5045256;28;20448;-70
2023/02/20 06:49:01;;;;;;;1999.90;999.90;;;6.10;99.90;;;;;;5043059;28;20946;-68
2023/02/20 06:51:29;;;;;;;1999.90;999.90;;;6.10;99.90;;;;;;5040882;28;20445;-67
2023/02/20 06:53:57;;;;;;;1999.90;999.90;;;6.20;99.90;;;;;;5030296;28;20451;-68
2023/02/20 06:56:25;;;;;;;1999.90;999.90;;;6.20;99.90;;;;;;5031740;28;20460;-67
2023/02/20 06:58:54;;;;;;;1999.90;999.90;;;6.30;99.90;;;;;;5033942;28;20441;-68
2023/02/20 07:01:22;;;;;;;1999.90;999.90;;;6.20;99.90;;;;;;5029230;28;20978;-68
2023/02/20 07:03:52;;;;;;;1999.90;999.90;;;6.30;99.90;;;;;;5029998;28;20484;-67
2023/02/20 07:06:19;;;;;;;1999.90;999.90;;;6.30;99.90;;;;;;5029974;28;20453;-67
2023/02/20 07:08:45;;;;;;;1999.90;999.90;;;6.40;99.90;;;;;;5031116;28;20460;-68
2023/02/20 07:11:12;;;;;;;1999.90;999.90;;;6.40;99.90;;;;;;5031595;28;20456;-68
2023/02/20 07:13:40;;;;;;;1999.90;999.90;;;6.40;99.90;;;;;;5030555;28;20441;-66
2023/02/20 07:16:08;;;;;;;1999.90;999.90;;;6.40;99.90;;;;;;5031294;28;20520;-69
2023/02/20 07:18:35;;;;;;;1999.90;999.90;;;6.50;99.90;;;;;;5031408;28;20455;-68
2023/02/20 07:21:02;;;;;;;1999.90;999.90;;;6.50;99.90;;;;;;5030523;28;20456;-69
2023/02/20 07:23:29;;;;;;;1999.90;999.90;;;6.50;99.90;;;;;;5038359;28;20488;-69
2023/02/20 07:25:56;;;;;;;1999.90;999.90;;;6.60;99.90;;;;;;5047913;28;21033;-66
2023/02/20 07:28:23;;;;;;;1999.90;999.90;;;6.70;99.90;;;;;;5042782;28;20979;-68
2023/02/20 07:30:50;;;;;;;1999.90;999.90;;;6.80;99.90;;;;;;5040220;28;20460;-67
2023/02/20 07:33:19;;;;;;;1999.90;999.90;;;6.90;99.90;;;;;;5033618;28;20465;-68
2023/02/20 07:35:46;;;;;;;1999.90;999.90;;;7.00;99.90;;;;;;5034208;28;20459;-68
2023/02/20 07:38:13;;;;;;;1999.90;999.90;;;7.10;99.90;;;;;;5043501;28;20842;-69
2023/02/20 07:40:40;;;;;;;1999.90;999.90;;;7.20;99.90;;;;;;5042905;28;20466;-67
2023/02/20 07:43:07;;;;;;;1999.90;999.90;;;7.30;99.90;;;;;;5036161;28;20491;-70
2023/02/20 07:45:34;;;;;;;1999.90;999.90;;;7.40;99.90;;;;;;5045637;28;20454;-69
2023/02/20 07:48:00;;;;;;;1999.90;999.90;;;7.50;99.90;;;;;;5034744;28;20460;-68
2023/02/20 07:50:29;;;;;;;1999.90;999.90;;;7.60;99.90;;;;;;5039619;28;20456;-67
2023/02/20 07:52:55;;;;;;;1999.90;999.90;;;7.70;99.90;;;;;;5040029;28;20886;-69
2023/02/20 07:55:22;;;;;;;1999.90;999.90;;;7.80;99.90;;;;;;5035255;28;20467;-67
2023/02/20 07:57:50;;;;;;;1999.90;999.90;;;7.90;99.90;;;;;;5041630;28;20466;-67
2023/02/20 08:00:20;;;;;;;1999.90;999.90;;;8.10;99.90;;;;;;5045046;28;20570;-67
2023/02/20 08:02:47;;;;;;;1999.90;999.90;;;8.20;99.90;;;;;;5041596;28;20564;-67
2023/02/20 08:05:14;;;;;;;1999.90;999.90;;;8.20;99.90;;;;;;5036467;28;20449;-69
2023/02/20 08:07:46;;;;;;;1999.90;999.90;;;8.30;99.90;;;;;;5044939;28;20444;-67
2023/02/20 08:10:13;;;;;;;1999.90;999.90;;;8.40;99.90;;;;;;5044642;28;20523;-68
2023/02/20 08:12:40;;;;;;;1999.90;999.90;;;8.50;99.90;;;;;;5030790;28;20473;-67
2023/02/20 08:15:09;;;;;;;1999.90;999.90;;;8.60;99.90;;;;;;5032923;28;20441;-66
2023/02/20 08:17:36;;;;;;;1999.90;999.90;;;8.70;99.90;;;;;;5039431;28;20456;-67
2023/02/20 08:20:03;;;;;;;1999.90;999.90;;;8.80;99.90;;;;;;5048585;28;20445;-69
2023/02/20 08:22:29;;;;;;;1999.90;999.90;;;9.00;99.90;;;;;;5038570;28;20491;-69
2023/02/20 08:24:58;;;;;;;1999.90;999.90;;;9.10;99.90;;;;;;5042592;28;20455;-71
2023/02/20 08:27:24;;;;;;;1999.90;999.90;;;9.30;99.90;;;;;;5037002;28;20452;-70
2023/02/20 08:29:51;;;;;;;1999.90;999.90;;;9.40;99.90;;;;;;5034416;28;20449;-70
2023/02/20 08:32:18;;;;;;;1999.90;999.90;;;9.60;99.90;;;;;;5047050;28;20498;-67
2023/02/20 08:34:48;;;;;;;1999.90;999.90;;;9.60;99.90;;;;;;5038596;28;20474;-69
2023/02/20 08:37:17;;;;;;;1999.90;999.90;;;9.80;99.90;;;;;;5041249;28;20448;-68
2023/02/20 08:39:44;;;;;;;1999.90;999.90;;;10.00;99.90;;;;;;5041590;28;20468;-68
2023/02/20 08:42:15;;;;;;;1999.90;999.90;;;10.10;99.90;;;;;;5038936;28;20476;-68
2023/02/20 08:44:42;;;;;;;1999.90;999.90;;;10.20;99.90;;;;;;5026505;28;20456;-68
2023/02/20 08:47:09;;;;;;;1999.90;999.90;;;10.30;99.90;;;;;;5028850;28;20534;-68
2023/02/20 08:49:35;;;;;;;1999.90;999.90;;;10.40;99.90;;;;;;5030300;28;20445;-69
2023/02/20 08:52:04;;;;;;;1999.90;999.90;;;10.50;99.90;;;;;;5047309;28;20470;-69
2023/02/20 08:54:31;;;;;;;1999.90;999.90;;;10.70;99.90;;;;;;5047903;28;20555;-69
2023/02/20 08:56:58;;;;;;;1999.90;999.90;;;10.80;99.90;;;;;;5031578;28;20459;-70
2023/02/20 08:59:26;;;;;;;1999.90;999.90;;;11.00;99.90;;;;;;5027130;28;20444;-67
2023/02/20 09:01:53;;;;;;;1999.90;999.90;;;11.10;99.90;;;;;;5028214;28;20471;-67
2023/02/20 09:04:22;;;;;;;1999.90;999.90;;;11.30;99.90;;;;;;5029474;28;21010;-68
2023/02/20 09:06:49;;;;;;;1999.90;999.90;;;11.40;99.90;;;;;;5028790;28;20530;-68
2023/02/20 09:09:16;;;;;;;1999.90;999.90;;;11.50;99.90;;;;;;5039434;28;20452;-70
2023/02/20 09:11:43;;;;;;;1999.90;999.90;;;11.80;99.90;;;;;;5028580;28;20531;-70
2023/02/20 09:14:09;;;;;;;1999.90;999.90;;;12.10;99.90;;;;;;5028197;28;20460;-67
2023/02/20 09:16:40;;;;;;;1999.90;999.90;;;12.40;99.90;;;;;;5028778;28;20445;-67
2023/02/20 09:19:07;;;;;;;1999.90;999.90;;;12.60;99.90;;;;;;5029912;28;20452;-68
2023/02/20 09:21:34;;;;;;;1999.90;999.90;;;12.70;99.90;;;;;;5030409;28;20445;-68
2023/02/20 09:24:01;;;;;;;1999.90;999.90;;;13.10;99.90;;;;;;5029062;28;20481;-66
2023/02/20 09:26:28;;;;;;;1999.90;999.90;;;13.30;99.90;;;;;;5029122;28;20441;-68
2023/02/20 09:28:55;;;;;;;1999.90;999.90;;;13.50;99.90;;;;;;5030763;28;20460;-68
2023/02/20 09:31:22;;;;;;;1999.90;999.90;;;13.40;99.90;;;;;;5040892;28;20450;-68
2023/02/20 09:33:50;;;;;;;1999.90;999.90;;;13.70;99.90;;;;;;5041939;28;20839;-68
2023/02/20 09:36:16;;;;;;;1999.90;999.90;;;14.10;99.90;;;;;;5030448;28;20538;-69
2023/02/20 09:38:43;;;;;;;1999.90;999.90;;;14.50;99.90;;;;;;5045602;28;20452;-66
2023/02/20 09:41:19;;;;;;;1999.90;999.90;;;14.40;99.90;;;;;;5031122;28;20456;-70
2023/02/20 09:43:54;;;;;;;1999.90;999.90;;;14.50;99.90;;;;;;5006192;28;21025;-69
2023/02/20 09:46:22;;;;;;;1999.90;999.90;;;15.00;99.90;;;;;;5006227;28;20452;-70
2023/02/20 09:49:02;;;;;;;1999.90;999.90;;;15.40;99.90;;;;;;5024111;28;20469;-68
2023/02/20 09:51:31;;;;;;;1999.90;999.90;;;15.20;99.90;;;;;;5048844;28;20539;-70
2023/02/20 09:54:04;;;;;;;1999.90;999.90;;;14.90;99.90;;;;;;5047145;28;20428;-67
2023/02/20 09:56:35;;;;;;;1999.90;999.90;;;14.40;99.90;;;;;;5048232;28;20447;-70
2023/02/20 09:59:07;;;;;;;1999.90;999.90;;;14.30;99.90;;;;;;5037451;28;20511;-69
2023/02/20 10:01:39;;;;;;;1999.90;999.90;;;14.20;99.90;;;;;;5019242;28;20445;-71
2023/02/20 10:04:12;;;;;;;1999.90;999.90;;;14.10;99.90;;;;;;5022051;28;20854;-67
2023/02/20 10:06:38;;;;;;;1999.90;999.90;;;13.90;99.90;;;;;;5022381;28;20491;-67
2023/02/20 10:09:10;;;;;;;1999.90;999.90;;;13.80;99.90;;;;;;5024133;28;20829;-71
2023/02/20 10:11:51;;;;;;;1999.90;999.90;;;13.70;99.90;;;;;;5022979;28;20523;-68
2023/02/20 10:14:36;;;;;;;1999.90;999.90;;;13.80;99.90;;;;;;5023892;28;20987;-69
2023/02/20 10:17:14;;;;;;;1999.90;999.90;;;13.80;99.90;;;;;;5025758;28;20540;-69
2023/02/20 10:19:49;;;;;;;1999.90;999.90;;;13.50;99.90;;;;;;5025912;28;20538;-68
2023/02/20 10:22:21;;;;;;;1999.90;999.90;;;13.30;99.90;;;;;;5025608;28;20831;-69
2023/02/20 10:25:03;;;;;;;1999.90;999.90;;;13.40;99.90;;;;;;5024977;28;20994;-68
2023/02/20 10:27:37;;;;;;;1999.90;999.90;;;13.30;99.90;;;;;;5025285;28;20523;-70
2023/02/20 10:30:05;;;;;;;1999.90;999.90;;;13.20;99.90;;;;;;5027137;28;20452;-68
2023/02/20 10:32:40;;;;;;;1999.90;999.90;;;13.20;99.90;;;;;;5023764;28;20464;-69
2023/02/20 10:35:09;;;;;;;1999.90;999.90;;;13.30;99.90;;;;;;5026455;28;20456;-67
2023/02/20 10:37:40;;;;;;;1999.90;999.90;;;13.70;99.90;;;;;;5026508;28;20476;-65
2023/02/20 10:40:16;;;;;;;1999.90;999.90;;;13.90;99.90;;;;;;5025164;28;20455;-66
2023/02/20 10:42:50;;;;;;;1999.90;999.90;;;14.10;99.90;;;;;;5026023;28;20480;-67
2023/02/20 10:45:27;;;;;;;1999.90;999.90;;;14.60;99.90;;;;;;5025595;28;20430;-67
2023/02/20 10:47:58;;;;;;;1999.90;999.90;;;14.70;99.90;;;;;;5025696;28;20453;-66
2023/02/20 10:50:31;;;;;;;1999.90;999.90;;;15.00;99.90;;;;;;5024166;28;20449;-67
2023/02/20 10:53:04;;;;;;;1999.90;999.90;;;15.30;99.90;;;;;;5024655;28;21061;-66
2023/02/20 10:55:36;;;;;;;1999.90;999.90;;;15.60;99.90;;;;;;5025065;28;20449;-68
2023/02/20 10:58:10;;;;;;;1999.90;999.90;;;15.70;99.90;;;;;;5024989;28;20815;-69
2023/02/20 11:00:42;;;;;;;1999.90;999.90;;;15.70;99.90;;;;;;5025068;28;20433;-68
2023/02/20 11:03:16;;;;;;;1999.90;999.90;;;15.50;99.90;;;;;;5025062;28;20483;-67
2023/02/20 11:05:54;;;;;;;1999.90;999.90;;;15.30;99.90;;;;;;5025540;28;20445;-68
2023/02/20 11:08:21;;;;;;;1999.90;999.90;;;15.30;99.90;;;;;;5022626;28;20807;-68
2023/02/20 11:10:48;;;;;;;1999.90;999.90;;;15.40;99.90;;;;;;5028506;28;20461;-67
2023/02/20 11:13:20;;;;;;;1999.90;999.90;;;15.70;99.90;;;;;;5026494;28;20994;-69
2023/02/20 11:15:50;;;;;;;1999.90;999.90;;;16.20;99.90;;;;;;5027672;28;20873;-71
2023/02/20 11:18:24;;;;;;;1999.90;999.90;;;17.10;98.90;;;;;;5027984;28;20535;-70
2023/02/20 11:20:55;;;;;;;1999.90;999.90;;;18.00;97.40;;;;;;5028308;28;20455;-69
2023/02/20 11:23:40;;;;;;;1999.90;999.90;;;17.80;96.60;;;;;;5025684;28;20614;-67
2023/02/20 11:26:24;;;;;;;1999.90;999.90;;;17.80;96.70;;;;;;5026480;28;20468;-68
2023/02/20 11:29:00;;;;;;;1999.90;999.90;;;18.10;95.60;;;;;;5027915;28;20528;-67
2023/02/20 11:31:27;;;;;;;1999.90;999.90;;;18.10;95.60;;;;;;5025345;28;20821;-68
2023/02/20 11:33:55;;;;;;;1999.90;999.90;;;18.40;95.40;;;;;;5024959;28;21263;-68
2023/02/20 11:36:26;;;;;;;1999.90;999.90;;;18.70;94.50;;;;;;5028082;28;20467;-68
2023/02/20 11:39:00;;;;;;;1999.90;999.90;;;18.60;94.00;;;;;;5025980;28;20965;-67
2023/02/20 11:41:31;;;;;;;1999.90;999.90;;;18.40;94.30;;;;;;5026488;28;20441;-67
2023/02/20 11:44:17;;;;;;;1999.90;999.90;;;18.60;94.80;;;;;;5025790;28;20485;-67
2023/02/20 11:46:46;;;;;;;1999.90;999.90;;;18.70;94.20;;;;;;5026660;28;20445;-68
2023/02/20 11:49:23;;;;;;;1999.90;999.90;;;18.60;93.30;;;;;;5026941;28;20450;-69
2023/02/20 11:51:51;;;;;;;1999.90;999.90;;;18.50;93.50;;;;;;5027172;28;20486;-67
2023/02/20 11:54:21;;;;;;;1999.90;999.90;;;18.40;93.30;;;;;;5026652;28;20499;-67
2023/02/20 11:56:57;;;;;;;1999.90;999.90;;;18.50;93.30;;;;;;5027348;28;20440;-67
2023/02/20 11:59:29;;;;;;;1999.90;999.90;;;19.00;93.10;;;;;;5027530;28;20776;-67
2023/02/20 12:01:55;;;;;;;1999.90;999.90;;;19.00;92.40;;;;;;5025849;28;20568;-66
2023/02/20 12:04:25;;;;;;;1999.90;999.90;;;19.30;91.60;;;;;;5024939;28;20485;-67
2023/02/20 12:06:53;;;;;;;1999.90;999.90;;;19.10;92.30;;;;;;5025617;28;20445;-66
2023/02/20 12:09:25;;;;;;;1999.90;999.90;;;19.10;91.90;;;;;;5025874;28;20445;-65
2023/02/20 12:11:56;;;;;;;1999.90;999.90;;;19.20;92.40;;;;;;5025372;28;20477;-68
2023/02/20 12:14:23;;;;;;;1999.90;999.90;;;19.80;91.00;;;;;;5023699;28;20452;-70
2023/02/20 12:17:09;;;;;;;1999.90;999.90;;;19.70;90.20;;;;;;5024965;28;20959;-67
2023/02/20 12:19:47;;;;;;;1999.90;999.90;;;19.50;89.30;;;;;;5026667;28;20813;-67
2023/02/20 12:22:22;;;;;;;1999.90;999.90;;;19.40;91.30;;;;;;5026161;28;20468;-67
2023/02/20 12:25:22;;;;;;;1999.90;999.90;;;19.10;91.10;;;;;;5025951;28;21256;-69
2023/02/20 12:27:59;;;;;;;1999.90;999.90;;;18.30;91.50;;;;;;5016849;28;20446;-67
2023/02/20 12:30:43;;;;;;;1999.90;999.90;;;17.20;93.20;;;;;;5027070;28;20445;-67
2023/02/20 12:33:33;;;;;;;1999.90;999.90;;;16.50;95.00;;;;;;5041331;28;20781;-69
2023/02/20 12:36:08;;;;;;;1999.90;999.90;;;16.20;94.80;;;;;;5030697;28;20452;-68
2023/02/20 12:38:47;;;;;;;1999.90;999.90;;;15.90;95.90;;;;;;5030289;28;20455;-67